createdAt,value
2022-09-20T00:00:41.958Z,7.9
2022-09-20T00:01:52.065Z,7.8
2022-09-20T00:03:02.191Z,7.8
2022-09-20T00:04:12.298Z,7.7
2022-09-20T00:05:22.000Z,7.7
2022-09-20T00:06:32.539Z,7.7
2022-09-20T00:07:42.652Z,7.8
2022-09-20T00:08:52.780Z,7.7
2022-09-20T00:10:02.886Z,7.8
2022-09-20T00:11:13.015Z,7.8
2022-09-20T00:12:23.122Z,7.8
2022-09-20T00:13:33.248Z,7.9
2022-09-20T00:14:43.353Z,7.9
2022-09-20T00:17:02.620Z,7.8
2022-09-20T00:18:12.738Z,7.9
2022-09-20T00:19:22.844Z,7.8
2022-09-20T00:20:32.976Z,7.9
2022-09-20T00:21:43.096Z,8
2022-09-20T00:24:03.331Z,8
2022-09-20T00:25:13.441Z,8
2022-09-20T00:26:23.563Z,8
2022-09-20T00:27:33.672Z,8
2022-09-20T00:28:43.802Z,8
2022-09-20T00:29:53.907Z,7.9
2022-09-20T00:31:03.046Z,7.9
2022-09-20T00:32:13.169Z,8
2022-09-20T00:33:23.271Z,8
2022-09-20T00:34:33.407Z,8
2022-09-20T00:35:43.518Z,8
2022-09-20T00:36:53.637Z,8
2022-09-20T00:38:03.759Z,7.9
2022-09-20T00:39:13.861Z,7.9
2022-09-20T00:40:23.989Z,7.9
2022-09-20T00:41:34.272Z,8
2022-09-20T00:42:44.220Z,8
2022-09-20T00:43:54.341Z,7.9
2022-09-20T00:45:04.451Z,7.9
2022-09-20T00:46:13.587Z,7.9
2022-09-20T00:47:23.713Z,7.8
2022-09-20T00:48:33.834Z,7.8
2022-09-20T00:49:43.951Z,7.8
2022-09-20T00:52:04.189Z,7.9
2022-09-20T00:53:14.297Z,7.9
2022-09-20T00:54:24.420Z,7.9
2022-09-20T00:55:34.532Z,7.9
2022-09-20T00:56:44.655Z,7.9
2022-09-20T00:57:54.762Z,7.9
2022-09-20T00:59:04.890Z,7.9
2022-09-20T01:00:15.014Z,7.8
2022-09-20T01:01:24.135Z,7.9
2022-09-20T01:02:34.262Z,7.9
2022-09-20T01:03:44.371Z,7.8
2022-09-20T01:04:54.498Z,7.8
2022-09-20T01:06:04.604Z,7.8
2022-09-20T01:07:14.734Z,7.7
2022-09-20T01:08:24.850Z,7.7
2022-09-20T01:09:34.975Z,7.7
2022-09-20T01:10:45.093Z,7.7
2022-09-20T01:11:55.197Z,7.7
2022-09-20T01:13:05.319Z,7.7
2022-09-20T01:14:15.433Z,7.7
2022-09-20T01:15:25.556Z,7.7
2022-09-20T01:16:34.688Z,7.6
2022-09-20T01:17:44.817Z,7.7
2022-09-20T01:18:54.927Z,7.7
2022-09-20T01:20:05.040Z,7.8
2022-09-20T01:21:15.161Z,7.7
2022-09-20T01:22:25.281Z,7.7
2022-09-20T01:24:45.510Z,7.7
2022-09-20T01:25:55.631Z,7.7
2022-09-20T01:27:05.919Z,7.7
2022-09-20T01:28:15.865Z,7.7
2022-09-20T01:29:26.152Z,7.8
2022-09-20T01:30:36.107Z,7.8
2022-09-20T01:31:45.243Z,7.7
2022-09-20T01:32:55.359Z,7.7
2022-09-20T01:34:05.643Z,7.7
2022-09-20T01:35:15.589Z,7.7
2022-09-20T01:36:25.718Z,7.7
2022-09-20T01:37:35.823Z,7.7
2022-09-20T01:38:45.949Z,7.6
2022-09-20T01:39:56.069Z,7.7
2022-09-20T01:41:06.351Z,7.6
2022-09-20T01:42:16.304Z,7.7
2022-09-20T01:43:26.421Z,7.6
2022-09-20T01:44:36.533Z,7.6
2022-09-20T01:45:46.656Z,7.6
2022-09-20T01:46:55.787Z,7.6
2022-09-20T01:48:05.910Z,7.6
2022-09-20T01:49:16.018Z,7.6
2022-09-20T01:50:26.145Z,7.6
2022-09-20T01:51:36.268Z,7.6
2022-09-20T01:52:46.373Z,7.6
2022-09-20T01:53:56.499Z,7.5
2022-09-20T01:55:06.619Z,7.5
2022-09-20T01:56:16.724Z,7.4
2022-09-20T01:57:26.851Z,7.4
2022-09-20T01:58:36.976Z,7.5
2022-09-20T01:59:47.078Z,7.5
2022-09-20T02:00:57.199Z,7.5
2022-09-20T02:02:06.335Z,7.5
2022-09-20T02:03:16.458Z,7.5
2022-09-20T02:04:26.579Z,7.4
2022-09-20T02:05:36.689Z,7.4
2022-09-20T02:06:46.818Z,7.4
2022-09-20T02:07:56.921Z,7.3
2022-09-20T02:09:07.049Z,7.3
2022-09-20T02:10:17.155Z,7.2
2022-09-20T02:11:27.280Z,7.2
2022-09-20T02:12:37.406Z,7.1
2022-09-20T02:13:47.510Z,7.1
2022-09-20T02:14:57.636Z,7.1
2022-09-20T02:16:07.743Z,7.1
2022-09-20T02:17:16.888Z,7.1
2022-09-20T02:18:27.008Z,7.1
2022-09-20T02:19:37.116Z,7.1
2022-09-20T02:20:47.241Z,7.1
2022-09-20T02:21:57.350Z,7.1
2022-09-20T02:23:07.470Z,7.1
2022-09-20T02:24:17.598Z,7.2
2022-09-20T02:25:27.718Z,7.1
2022-09-20T02:26:37.836Z,7.1
2022-09-20T02:27:47.943Z,7.1
2022-09-20T02:28:58.069Z,7
2022-09-20T02:30:08.175Z,7.2
2022-09-20T02:31:18.296Z,7.2
2022-09-20T02:32:27.443Z,7.2
2022-09-20T02:33:37.000Z,7.2
2022-09-20T02:34:47.678Z,7.2
2022-09-20T02:35:57.788Z,7.2
2022-09-20T02:37:07.912Z,7.3
2022-09-20T02:38:18.034Z,7.3
2022-09-20T02:39:28.141Z,7.4
2022-09-20T02:40:38.266Z,7.4
2022-09-20T02:41:48.377Z,7.5
2022-09-20T02:42:58.503Z,7.5
2022-09-20T02:44:08.611Z,7.6
2022-09-20T02:45:18.738Z,7.6
2022-09-20T02:46:28.846Z,7.6
2022-09-20T02:47:37.976Z,7.7
2022-09-20T02:48:48.102Z,7.8
2022-09-20T02:51:08.331Z,8.1
2022-09-20T02:52:18.461Z,8.1
2022-09-20T02:53:28.565Z,8.1
2022-09-20T02:54:38.693Z,8.2
2022-09-20T02:55:48.803Z,8.1
2022-09-20T02:56:58.927Z,8.2
2022-09-20T02:58:09.038Z,8.3
2022-09-20T02:59:19.155Z,8.3
2022-09-20T03:00:29.277Z,8.3
2022-09-20T03:01:39.404Z,8.3
2022-09-20T03:02:48.533Z,8.3
2022-09-20T03:03:58.642Z,8.3
2022-09-20T03:05:08.772Z,8.2
2022-09-20T03:06:18.885Z,8.2
2022-09-20T03:07:29.014Z,8.2
2022-09-20T03:08:39.313Z,8.2
2022-09-20T03:09:49.250Z,8.1
2022-09-20T03:10:59.358Z,8.1
2022-09-20T03:12:09.485Z,8
2022-09-20T03:13:19.584Z,8
2022-09-20T03:14:29.708Z,8
2022-09-20T03:15:39.832Z,8
2022-09-20T03:16:49.953Z,8
2022-09-20T03:17:59.080Z,8
2022-09-20T03:19:09.193Z,8
2022-09-20T03:20:19.317Z,8
2022-09-20T03:21:29.429Z,8
2022-09-20T03:22:39.553Z,8
2022-09-20T03:23:49.673Z,8
2022-09-20T03:24:59.781Z,8
2022-09-20T03:26:09.905Z,8
2022-09-20T03:27:20.032Z,8
2022-09-20T03:28:30.152Z,8
2022-09-20T03:29:40.271Z,8
2022-09-20T03:30:50.371Z,7.9
2022-09-20T03:32:00.496Z,7.9
2022-09-20T03:33:09.626Z,7.9
2022-09-20T03:34:19.750Z,7.9
2022-09-20T03:35:29.874Z,7.9
2022-09-20T03:36:39.980Z,8
2022-09-20T03:37:50.107Z,8
2022-09-20T03:39:00.211Z,8
2022-09-20T03:40:10.500Z,8
2022-09-20T03:41:20.448Z,8
2022-09-20T03:42:30.570Z,8.1
2022-09-20T03:43:40.691Z,8
2022-09-20T03:44:50.801Z,8
2022-09-20T03:47:11.045Z,8.1
2022-09-20T03:48:20.183Z,8.1
2022-09-20T03:49:30.292Z,8.1
2022-09-20T03:50:40.417Z,8.1
2022-09-20T03:51:50.525Z,8.1
2022-09-20T03:53:00.652Z,8
2022-09-20T03:54:10.763Z,8
2022-09-20T03:55:19.914Z,7.9
2022-09-20T03:56:30.035Z,7.9
2022-09-20T03:57:40.144Z,7.9
2022-09-20T03:58:50.267Z,7.8
2022-09-20T04:00:00.373Z,7.8
2022-09-20T04:01:10.499Z,7.8
2022-09-20T04:02:20.623Z,7.8
2022-09-20T04:03:30.735Z,7.8
2022-09-20T04:04:40.849Z,7.7
2022-09-20T04:05:50.969Z,7.6
2022-09-20T04:07:01.093Z,7.6
2022-09-20T04:08:11.194Z,7.6
2022-09-20T04:09:21.312Z,7.5
2022-09-20T04:10:30.454Z,7.5
2022-09-20T04:11:40.579Z,7.4
2022-09-20T04:12:50.684Z,7.4
2022-09-20T04:15:10.926Z,7.4
2022-09-20T04:16:21.046Z,7.4
2022-09-20T04:17:31.163Z,7.4
2022-09-20T04:18:41.280Z,7.3
2022-09-20T04:19:51.399Z,7.2
2022-09-20T04:21:01.684Z,7.2
2022-09-20T04:22:11.626Z,7.2
2022-09-20T04:23:21.751Z,7.2
2022-09-20T04:24:31.864Z,7.1
2022-09-20T04:25:41.008Z,7.1
2022-09-20T04:26:51.112Z,7.1
2022-09-20T04:28:01.240Z,7.1
2022-09-20T04:29:11.365Z,7
2022-09-20T04:30:21.469Z,7
2022-09-20T04:31:31.592Z,6.9
2022-09-20T04:32:41.716Z,6.9
2022-09-20T04:33:51.821Z,6.8
2022-09-20T04:35:01.940Z,6.9
2022-09-20T04:36:12.069Z,6.8
2022-09-20T04:37:22.173Z,6.8
2022-09-20T04:38:32.296Z,6.8
2022-09-20T04:39:42.415Z,6.7
2022-09-20T04:40:51.548Z,6.7
2022-09-20T04:42:01.676Z,6.7
2022-09-20T04:43:11.783Z,6.6
2022-09-20T04:44:21.899Z,6.6
2022-09-20T04:45:32.018Z,6.7
2022-09-20T04:46:42.144Z,6.6
2022-09-20T04:47:52.267Z,6.6
2022-09-20T04:49:02.371Z,6.6
2022-09-20T04:50:12.498Z,6.6
2022-09-20T04:51:22.620Z,6.6
2022-09-20T04:52:32.736Z,6.6
2022-09-20T04:53:43.021Z,6.6
2022-09-20T04:54:52.973Z,6.6
2022-09-20T04:56:02.108Z,6.6
2022-09-20T04:57:12.218Z,6.5
2022-09-20T04:58:22.346Z,6.5
2022-09-20T04:59:32.448Z,6.6
2022-09-20T05:00:42.573Z,6.6
2022-09-20T05:01:52.696Z,6.6
2022-09-20T05:03:02.814Z,6.6
2022-09-20T05:04:12.929Z,6.6
2022-09-20T05:05:23.041Z,6.5
2022-09-20T05:06:33.166Z,6.5
2022-09-20T05:07:43.284Z,6.5
2022-09-20T05:08:53.404Z,6.5
2022-09-20T05:11:13.635Z,6.5
2022-09-20T05:12:22.770Z,6.4
2022-09-20T05:13:32.886Z,6.4
2022-09-20T05:14:43.013Z,6.4
2022-09-20T05:15:53.131Z,6.4
2022-09-20T05:17:03.233Z,6.6
2022-09-20T05:18:13.357Z,6.6
2022-09-20T05:19:23.484Z,6.7
2022-09-20T05:20:33.590Z,6.8
2022-09-20T05:21:43.711Z,6.8
2022-09-20T05:22:53.836Z,6.8
2022-09-20T05:25:14.063Z,6.7
2022-09-20T05:26:24.187Z,6.7
2022-09-20T05:27:33.327Z,6.6
2022-09-20T05:28:43.428Z,6.6
2022-09-20T05:29:53.722Z,6.6
2022-09-20T05:31:03.662Z,6.6
2022-09-20T05:32:13.785Z,6.5
2022-09-20T05:33:23.905Z,6.5
2022-09-20T05:34:34.030Z,6.5
2022-09-20T05:35:44.138Z,6.6
2022-09-20T05:36:54.252Z,6.6
2022-09-20T05:39:14.491Z,6.7
2022-09-20T05:40:24.614Z,6.7
2022-09-20T05:41:34.736Z,6.8
2022-09-20T05:42:43.871Z,6.8
2022-09-20T05:43:53.987Z,6.9
2022-09-20T05:45:04.113Z,6.9
2022-09-20T05:46:14.219Z,7.1
2022-09-20T05:47:24.343Z,7.2
2022-09-20T05:48:34.465Z,7.4
2022-09-20T05:49:44.569Z,7.5
2022-09-20T05:50:54.701Z,7.6
2022-09-20T05:52:04.816Z,7.6
2022-09-20T05:53:14.927Z,7.7
2022-09-20T05:54:25.037Z,7.7
2022-09-20T05:55:35.161Z,7.8
2022-09-20T05:56:45.291Z,7.9
2022-09-20T05:57:54.406Z,8
2022-09-20T05:59:04.533Z,8.1
2022-09-20T06:00:14.657Z,8.1
2022-09-20T06:01:24.762Z,8.1
2022-09-20T06:02:35.050Z,8.1
2022-09-20T06:03:45.007Z,8.1
2022-09-20T06:04:55.116Z,8.2
2022-09-20T06:06:05.242Z,8.3
2022-09-20T06:07:15.349Z,8.3
2022-09-20T06:08:25.475Z,8.4
2022-09-20T06:09:35.605Z,8.7
2022-09-20T06:10:45.709Z,8.9
2022-09-20T06:11:55.829Z,9
2022-09-20T06:14:15.085Z,9.1
2022-09-20T06:15:25.209Z,9.1
2022-09-20T06:16:35.321Z,9.2
2022-09-20T06:17:45.446Z,9.4
2022-09-20T06:18:55.552Z,9.7
2022-09-20T06:21:15.794Z,10
2022-09-20T06:22:25.916Z,10.2
2022-09-20T06:23:36.018Z,10.3
2022-09-20T06:24:46.149Z,10.5
2022-09-20T06:25:56.271Z,10.7
2022-09-20T06:27:06.386Z,10.8
2022-09-20T06:28:15.517Z,11
2022-09-20T06:29:25.622Z,11.1
2022-09-20T06:30:35.745Z,11.3
2022-09-20T06:31:45.871Z,11.5
2022-09-20T06:32:56.143Z,11.6
2022-09-20T06:35:16.226Z,11.9
2022-09-20T06:36:25.371Z,12
2022-09-20T06:37:34.659Z,12.1
2022-09-20T06:38:44.625Z,12.2
2022-09-20T06:39:54.733Z,12.3
2022-09-20T06:41:04.848Z,12.4
2022-09-20T06:42:15.132Z,12.6
2022-09-20T06:43:25.096Z,12.7
2022-09-20T06:44:35.199Z,12.8
2022-09-20T06:45:45.324Z,12.9
2022-09-20T06:46:55.446Z,13
2022-09-20T06:49:15.676Z,13.1
2022-09-20T06:50:25.802Z,13.1
2022-09-20T06:51:35.911Z,13.2
2022-09-20T06:52:45.044Z,13.2
2022-09-20T06:53:55.158Z,13.3
2022-09-20T06:55:05.284Z,13.4
2022-09-20T06:56:15.390Z,13.4
2022-09-20T06:57:25.516Z,13.4
2022-09-20T06:58:35.637Z,13.3
2022-09-20T06:59:45.749Z,13.2
2022-09-20T07:00:55.871Z,13.1
2022-09-20T07:02:05.009Z,13.2
2022-09-20T07:03:14.149Z,13.4
2022-09-20T07:04:24.275Z,13.4
2022-09-20T07:05:34.378Z,13.5
2022-09-20T07:06:44.498Z,13.6
2022-09-20T07:07:54.614Z,13.7
2022-09-20T07:09:04.736Z,13.8
2022-09-20T07:10:14.857Z,13.8
2022-09-20T07:11:24.965Z,13.9
2022-09-20T07:12:35.092Z,14.1
2022-09-20T07:13:45.212Z,14.3
2022-09-20T07:14:55.331Z,14.2
2022-09-20T07:16:05.442Z,14.2
2022-09-20T07:17:15.555Z,14.3
2022-09-20T07:18:24.688Z,14.4
2022-09-20T07:19:34.811Z,14.3
2022-09-20T07:20:44.932Z,14.4
2022-09-20T07:21:55.037Z,14.5
2022-09-20T07:24:15.290Z,14.7
2022-09-20T07:25:25.395Z,14.7
2022-09-20T07:26:35.519Z,14.8
2022-09-20T07:27:45.628Z,14.8
2022-09-20T07:28:55.748Z,14.6
2022-09-20T07:31:15.993Z,14.4
2022-09-20T07:32:26.099Z,14.3
2022-09-20T07:33:35.235Z,14.1
2022-09-20T07:34:45.354Z,14.1
2022-09-20T07:35:55.628Z,14.1
2022-09-20T07:38:15.711Z,13.9
2022-09-20T07:39:24.860Z,13.9
2022-09-20T07:40:33.995Z,13.9
2022-09-20T07:41:44.102Z,14
2022-09-20T07:42:54.214Z,14
2022-09-20T07:44:04.345Z,13.9
2022-09-20T07:45:14.455Z,14
2022-09-20T07:46:24.573Z,14.1
2022-09-20T07:47:34.690Z,14.2
2022-09-20T07:48:44.816Z,14.2
2022-09-20T07:49:53.950Z,14.2
2022-09-20T07:51:04.074Z,14.2
2022-09-20T07:52:13.214Z,14.2
2022-09-20T07:53:22.348Z,14.3
2022-09-20T07:54:32.468Z,14.3
2022-09-20T07:55:42.576Z,14.5
2022-09-20T07:56:52.698Z,14.6
2022-09-20T07:58:02.821Z,14.7
2022-09-20T07:59:12.941Z,14.9
2022-09-20T08:00:23.045Z,15
2022-09-20T08:01:33.169Z,14.9
2022-09-20T08:02:43.278Z,15
2022-09-20T08:03:53.408Z,14.9
2022-09-20T08:05:03.516Z,14.8
2022-09-20T08:06:13.793Z,14.8
2022-09-20T08:07:23.752Z,14.8
2022-09-20T08:08:32.883Z,14.8
2022-09-20T08:09:43.003Z,14.8
2022-09-20T08:10:53.129Z,14.8
2022-09-20T08:12:03.249Z,14.9
2022-09-20T08:13:13.362Z,15
2022-09-20T08:14:23.000Z,14.9
2022-09-20T08:15:33.601Z,15.1
2022-09-20T08:16:43.705Z,15
2022-09-20T08:17:53.836Z,14.9
2022-09-20T08:19:03.956Z,14.7
2022-09-20T08:20:14.064Z,14.8
2022-09-20T08:21:24.174Z,14.9
2022-09-20T08:22:34.298Z,15.1
2022-09-20T08:23:43.437Z,15.1
2022-09-20T08:24:53.551Z,15.1
2022-09-20T08:26:03.660Z,15.1
2022-09-20T08:27:13.782Z,15.1
2022-09-20T08:28:23.906Z,15.1
2022-09-20T08:29:34.013Z,15
2022-09-20T08:30:44.139Z,14.8
2022-09-20T08:31:54.248Z,14.7
2022-09-20T08:33:04.529Z,14.5
2022-09-20T08:34:14.501Z,14.5
2022-09-20T08:35:24.613Z,14.4
2022-09-20T08:36:34.718Z,14.4
2022-09-20T08:37:44.841Z,14.6
2022-09-20T08:38:53.979Z,14.7
2022-09-20T08:40:04.104Z,14.9
2022-09-20T08:41:14.213Z,15
2022-09-20T08:42:24.338Z,15.2
2022-09-20T08:43:34.450Z,15.3
2022-09-20T08:44:44.556Z,15.4
2022-09-20T08:45:54.681Z,15.6
2022-09-20T08:47:04.806Z,15.7
2022-09-20T08:48:14.911Z,15.8
2022-09-20T08:49:25.036Z,15.7
2022-09-20T08:50:35.155Z,15.9
2022-09-20T08:51:45.276Z,15.9
2022-09-20T08:52:55.382Z,15.6
2022-09-20T08:55:14.630Z,15.6
2022-09-20T08:56:24.746Z,15.6
2022-09-20T08:57:34.877Z,15.6
2022-09-20T08:58:44.982Z,15.6
2022-09-20T08:59:55.276Z,15.7
2022-09-20T09:01:05.228Z,15.8
2022-09-20T09:02:15.348Z,16
2022-09-20T09:03:25.456Z,16.1
2022-09-20T09:04:35.586Z,16.2
2022-09-20T09:05:45.699Z,16.3
2022-09-20T09:06:55.811Z,16.3
2022-09-20T09:08:05.928Z,16.4
2022-09-20T09:10:25.340Z,16.5
2022-09-20T09:11:35.297Z,16.4
2022-09-20T09:12:45.423Z,16.5
2022-09-20T09:13:55.530Z,16.6
2022-09-20T09:15:05.654Z,16.7
2022-09-20T09:16:15.777Z,16.4
2022-09-20T09:17:25.889Z,16.4
2022-09-20T09:18:36.161Z,16.6
2022-09-20T09:19:46.121Z,16.6
2022-09-20T09:20:56.242Z,16.7
2022-09-20T09:22:06.353Z,17
2022-09-20T09:23:16.477Z,16.9
2022-09-20T09:24:25.614Z,16.8
2022-09-20T09:25:35.721Z,16.7
2022-09-20T09:26:45.849Z,16.8
2022-09-20T09:27:55.970Z,16.8
2022-09-20T09:29:06.076Z,16.7
2022-09-20T09:30:16.202Z,16.7
2022-09-20T09:31:26.310Z,16.7
2022-09-20T09:32:36.422Z,16.6
2022-09-20T09:33:46.544Z,16.5
2022-09-20T09:34:56.672Z,16.4
2022-09-20T09:36:06.776Z,16.3
2022-09-20T09:37:16.898Z,16.3
2022-09-20T09:38:27.016Z,16.4
2022-09-20T09:39:36.163Z,16.3
2022-09-20T09:40:46.267Z,16.2
2022-09-20T09:41:56.392Z,16.1
2022-09-20T09:43:06.503Z,16.1
2022-09-20T09:44:16.618Z,16
2022-09-20T09:45:26.744Z,16
2022-09-20T09:46:36.864Z,16.1
2022-09-20T09:47:46.988Z,15.9
2022-09-20T09:48:57.094Z,15.9
2022-09-20T09:50:07.219Z,16
2022-09-20T09:51:17.326Z,16
2022-09-20T09:52:27.456Z,16.2
2022-09-20T09:53:37.571Z,16.2
2022-09-20T09:54:46.707Z,16.1
2022-09-20T09:55:56.828Z,16.2
2022-09-20T09:57:06.929Z,16.2
2022-09-20T09:58:17.048Z,16.3
2022-09-20T09:59:27.173Z,16.4
2022-09-20T10:00:37.291Z,16.4
2022-09-20T10:01:47.402Z,16.5
2022-09-20T10:02:57.528Z,16.3
2022-09-20T10:04:07.637Z,16.2
2022-09-20T10:05:17.752Z,15.9
2022-09-20T10:06:27.875Z,15.7
2022-09-20T10:07:37.994Z,15.5
2022-09-20T10:08:48.111Z,15.5
2022-09-20T10:09:57.242Z,15.3
2022-09-20T10:11:07.373Z,15.3
2022-09-20T10:12:17.480Z,15.3
2022-09-20T10:13:27.608Z,15.3
2022-09-20T10:14:37.712Z,15.3
2022-09-20T10:15:47.834Z,15.5
2022-09-20T10:16:57.953Z,15.8
2022-09-20T10:18:08.061Z,16
2022-09-20T10:19:18.183Z,16.3
2022-09-20T10:20:28.307Z,16.5
2022-09-20T10:21:38.425Z,16.4
2022-09-20T10:22:48.531Z,16.3
2022-09-20T10:23:58.649Z,16
2022-09-20T10:26:17.914Z,15.6
2022-09-20T10:27:28.035Z,15.3
2022-09-20T10:28:38.147Z,15.1
2022-09-20T10:29:48.252Z,15.1
2022-09-20T10:30:58.373Z,15
2022-09-20T10:32:08.504Z,15
2022-09-20T10:33:18.607Z,15
2022-09-20T10:34:28.726Z,15.1
2022-09-20T10:35:38.847Z,15.1
2022-09-20T10:36:48.969Z,15.3
2022-09-20T10:37:59.075Z,15.4
2022-09-20T10:39:09.201Z,15.5
2022-09-20T10:40:18.338Z,15.8
2022-09-20T10:41:28.455Z,15.9
2022-09-20T10:42:38.578Z,16
2022-09-20T10:43:48.680Z,16.1
2022-09-20T10:44:58.802Z,16.2
2022-09-20T10:46:08.925Z,16.3
2022-09-20T10:47:19.043Z,16.2
2022-09-20T10:48:29.150Z,16.2
2022-09-20T10:49:39.269Z,16.3
2022-09-20T10:50:49.396Z,16.4
2022-09-20T10:51:59.502Z,16.3
2022-09-20T10:54:19.741Z,16.2
2022-09-20T10:55:28.885Z,16.3
2022-09-20T10:56:38.991Z,16.5
2022-09-20T10:58:59.223Z,16.3
2022-09-20T11:01:19.476Z,15.9
2022-09-20T11:02:28.614Z,15.8
2022-09-20T11:03:37.753Z,15.7
2022-09-20T11:04:47.863Z,15.8
2022-09-20T11:05:57.974Z,15.8
2022-09-20T11:07:08.096Z,15.5
2022-09-20T11:08:18.372Z,15.4
2022-09-20T11:09:28.322Z,15.3
2022-09-20T11:10:38.449Z,15.4
2022-09-20T11:11:48.559Z,15.3
2022-09-20T11:12:58.680Z,15.3
2022-09-20T11:14:08.800Z,15.4
2022-09-20T11:15:17.949Z,15.4
2022-09-20T11:16:27.082Z,15.1
2022-09-20T11:17:37.190Z,15.4
2022-09-20T11:18:47.313Z,15.6
2022-09-20T11:19:57.440Z,15.7
2022-09-20T11:21:07.541Z,15.9
2022-09-20T11:22:17.674Z,15.8
2022-09-20T11:23:27.780Z,15.9
2022-09-20T11:24:37.906Z,15.8
2022-09-20T11:25:48.013Z,15.8
2022-09-20T11:26:58.142Z,15.8
2022-09-20T11:28:08.263Z,15.9
2022-09-20T11:29:18.372Z,15.9
2022-09-20T11:30:28.494Z,16.1
2022-09-20T11:31:37.629Z,16
2022-09-20T11:32:47.745Z,15.9
2022-09-20T11:33:57.854Z,16
2022-09-20T11:35:07.971Z,16.2
2022-09-20T11:36:18.085Z,16.5
2022-09-20T11:37:28.205Z,16.9
2022-09-20T11:38:38.339Z,17
2022-09-20T11:39:48.444Z,17
2022-09-20T11:40:58.563Z,16.5
2022-09-20T11:42:08.686Z,16.3
2022-09-20T11:43:18.806Z,15.9
2022-09-20T11:44:27.931Z,15.7
2022-09-20T11:45:38.050Z,15.6
2022-09-20T11:46:48.166Z,15.5
2022-09-20T11:47:58.288Z,15.3
2022-09-20T11:49:08.416Z,15.3
2022-09-20T11:50:18.518Z,15.3
2022-09-20T11:51:28.641Z,15.3
2022-09-20T11:52:38.766Z,15.2
2022-09-20T11:53:48.869Z,15.4
2022-09-20T11:54:58.995Z,15.7
2022-09-20T11:56:09.118Z,15.9
2022-09-20T11:57:19.239Z,15.7
2022-09-20T11:58:29.340Z,15.6
2022-09-20T11:59:38.481Z,15.5
2022-09-20T12:00:48.598Z,15.4
2022-09-20T12:01:58.721Z,15.3
2022-09-20T12:03:08.845Z,15.2
2022-09-20T12:04:18.952Z,15.4
2022-09-20T12:05:29.065Z,15.5
2022-09-20T12:06:39.195Z,15.5
2022-09-20T12:07:49.316Z,15.6
2022-09-20T12:08:59.433Z,15.7
2022-09-20T12:10:09.537Z,15.8
2022-09-20T12:11:19.664Z,15.8
2022-09-20T12:12:29.768Z,15.8
2022-09-20T12:13:39.895Z,15.9
2022-09-20T12:14:49.025Z,15.8
2022-09-20T12:18:19.388Z,15.5
2022-09-20T12:19:29.493Z,15.4
2022-09-20T12:20:39.619Z,15.3
2022-09-20T12:21:49.725Z,15.4
2022-09-20T12:22:59.841Z,15.7
2022-09-20T12:24:09.967Z,15.7
2022-09-20T12:25:20.239Z,15.9
2022-09-20T12:26:30.198Z,16
2022-09-20T12:27:40.315Z,16
2022-09-20T12:28:50.432Z,16.1
2022-09-20T12:29:59.575Z,16
2022-09-20T12:32:19.806Z,15.8
2022-09-20T12:33:28.954Z,15.8
2022-09-20T12:34:38.089Z,15.8
2022-09-20T12:35:48.197Z,15.7
2022-09-20T12:36:58.323Z,15.5
2022-09-20T12:38:08.429Z,15.6
2022-09-20T12:39:18.546Z,15.8
2022-09-20T12:40:28.670Z,16
2022-09-20T12:41:38.793Z,16.2
2022-09-20T12:42:48.916Z,16.3
2022-09-20T12:43:59.034Z,16.5
2022-09-20T12:45:09.142Z,16.6
2022-09-20T12:46:18.292Z,16.4
2022-09-20T12:47:27.431Z,16.4
2022-09-20T12:48:37.532Z,16.3
2022-09-20T12:49:47.661Z,16.1
2022-09-20T12:50:57.783Z,15.9
2022-09-20T12:52:07.886Z,15.7
2022-09-20T12:53:18.010Z,15.6
2022-09-20T12:54:28.126Z,15.5
2022-09-20T12:55:38.252Z,15.4
2022-09-20T12:56:48.364Z,15.4
2022-09-20T12:57:58.490Z,15.3
2022-09-20T12:59:08.593Z,15.3
2022-09-20T13:00:18.715Z,15.2
2022-09-20T13:01:28.840Z,15.1
2022-09-20T13:02:37.979Z,15
2022-09-20T13:03:48.086Z,15.1
2022-09-20T13:04:58.202Z,15.1
2022-09-20T13:06:08.323Z,15.5
2022-09-20T13:07:18.445Z,15.7
2022-09-20T13:08:28.567Z,16.1
2022-09-20T13:09:38.674Z,16.6
2022-09-20T13:10:48.794Z,16.6
2022-09-20T13:11:58.920Z,16.8
2022-09-20T13:13:09.028Z,16.8
2022-09-20T13:14:19.155Z,16.8
2022-09-20T13:15:29.259Z,16.8
2022-09-20T13:16:39.386Z,16.5
2022-09-20T13:17:48.508Z,16.5
2022-09-20T13:18:58.628Z,16.4
2022-09-20T13:20:08.753Z,16.3
2022-09-20T13:21:18.876Z,16.2
2022-09-20T13:22:28.980Z,16.2
2022-09-20T13:23:39.109Z,16.3
2022-09-20T13:24:49.232Z,16.3
2022-09-20T13:25:59.334Z,16.2
2022-09-20T13:27:09.453Z,16.2
2022-09-20T13:28:19.576Z,16.1
2022-09-20T13:29:29.694Z,16.1
2022-09-20T13:30:39.804Z,16
2022-09-20T13:31:49.926Z,16
2022-09-20T13:32:59.063Z,16
2022-09-20T13:34:09.185Z,15.9
2022-09-20T13:35:19.296Z,15.8
2022-09-20T13:36:29.417Z,15.9
2022-09-20T13:37:39.536Z,15.8
2022-09-20T13:38:49.661Z,15.8
2022-09-20T13:39:59.765Z,15.8
2022-09-20T13:41:09.894Z,15.8
2022-09-20T13:42:20.001Z,15.9
2022-09-20T13:43:30.128Z,16.3
2022-09-20T13:44:40.237Z,16.5
2022-09-20T13:45:50.359Z,16.8
2022-09-20T13:47:00.476Z,17
2022-09-20T13:49:19.730Z,17.3
2022-09-20T13:50:29.847Z,17.5
2022-09-20T13:51:39.971Z,17.4
2022-09-20T13:52:50.080Z,17
2022-09-20T13:54:00.203Z,16.4
2022-09-20T13:56:20.440Z,15.6
2022-09-20T13:57:30.563Z,15.3
2022-09-20T13:58:40.673Z,15.1
2022-09-20T13:59:50.792Z,14.8
2022-09-20T14:01:00.897Z,14.7
2022-09-20T14:03:21.134Z,14.6
2022-09-20T14:04:30.289Z,14.7
2022-09-20T14:05:39.412Z,14.9
2022-09-20T14:06:49.537Z,15.2
2022-09-20T14:07:59.652Z,15.4
2022-09-20T14:09:09.776Z,15.6
2022-09-20T14:10:19.881Z,15.7
2022-09-20T14:11:30.003Z,15.9
2022-09-20T14:12:40.128Z,16
2022-09-20T14:13:50.396Z,15.8
2022-09-20T14:15:00.355Z,15.7
2022-09-20T14:16:10.477Z,15.8
2022-09-20T14:17:19.621Z,15.8
2022-09-20T14:18:28.758Z,15.8
2022-09-20T14:19:38.867Z,15.6
2022-09-20T14:20:49.150Z,15.5
2022-09-20T14:21:59.101Z,15.6
2022-09-20T14:23:09.221Z,15.6
2022-09-20T14:24:19.352Z,15.8
2022-09-20T14:25:29.456Z,15.9
2022-09-20T14:26:39.577Z,15.9
2022-09-20T14:27:49.688Z,15.8
2022-09-20T14:28:59.000Z,15.5
2022-09-20T14:30:09.929Z,15.4
2022-09-20T14:31:20.058Z,15.1
2022-09-20T14:32:30.157Z,14.9
2022-09-20T14:33:39.294Z,14.7
2022-09-20T14:34:49.420Z,14.6
2022-09-20T14:35:59.541Z,14.6
2022-09-20T14:37:09.649Z,14.6
2022-09-20T14:38:19.778Z,14.6
2022-09-20T14:39:29.888Z,14.8
2022-09-20T14:40:39.996Z,14.8
2022-09-20T14:41:50.120Z,14.8
2022-09-20T14:43:00.238Z,14.8
2022-09-20T14:44:10.363Z,14.9
2022-09-20T14:45:20.484Z,15.8
2022-09-20T14:46:30.588Z,17.5
2022-09-20T14:47:40.711Z,18.7
2022-09-20T14:48:49.852Z,18.2
2022-09-20T14:49:59.954Z,17.6
2022-09-20T14:52:20.350Z,16.4
2022-09-20T14:53:30.309Z,15.8
2022-09-20T14:54:40.433Z,15.4
2022-09-20T14:55:50.542Z,15
2022-09-20T14:57:00.663Z,14.8
2022-09-20T14:58:10.788Z,14.8
2022-09-20T14:59:20.897Z,14.6
2022-09-20T15:00:31.022Z,14.5
2022-09-20T15:01:41.139Z,14.4
2022-09-20T15:02:51.261Z,14.3
2022-09-20T15:04:00.378Z,14.3
2022-09-20T15:05:10.499Z,14.2
2022-09-20T15:06:20.628Z,14.6
2022-09-20T15:07:30.734Z,14.7
2022-09-20T15:08:40.858Z,14.7
2022-09-20T15:09:51.127Z,14.8
2022-09-20T15:11:01.097Z,16
2022-09-20T15:12:11.202Z,17.4
2022-09-20T15:13:21.330Z,18.5
2022-09-20T15:14:31.450Z,18.9
2022-09-20T15:15:41.554Z,19.4
2022-09-20T15:16:51.676Z,19.1
2022-09-20T15:18:01.807Z,19.6
2022-09-20T15:20:21.051Z,20.8
2022-09-20T15:21:31.165Z,21.4
2022-09-20T15:22:41.287Z,21.7
2022-09-20T15:23:51.408Z,21.4
2022-09-20T15:25:01.521Z,20.6
2022-09-20T15:27:21.749Z,21.1
2022-09-20T15:28:31.878Z,20.6
2022-09-20T15:29:41.981Z,20.7
2022-09-20T15:30:52.102Z,20.9
2022-09-20T15:32:02.225Z,21
2022-09-20T15:33:12.340Z,20.3
2022-09-20T15:34:21.473Z,20.3
2022-09-20T15:35:31.600Z,20.8
2022-09-20T15:36:41.718Z,20.8
2022-09-20T15:37:51.840Z,21.1
2022-09-20T15:39:00.974Z,20.4
2022-09-20T15:40:11.093Z,18.8
2022-09-20T15:41:21.197Z,17.6
2022-09-20T15:42:31.321Z,16.6
2022-09-20T15:43:41.447Z,16
2022-09-20T15:44:51.551Z,15.6
2022-09-20T15:46:01.675Z,15.4
2022-09-20T15:47:11.795Z,15.2
2022-09-20T15:48:21.905Z,15
2022-09-20T15:49:32.026Z,14.9
2022-09-20T15:50:42.148Z,14.9
2022-09-20T15:51:52.262Z,14.9
2022-09-20T15:53:02.389Z,14.7
2022-09-20T15:54:10.925Z,14.6
2022-09-20T15:55:21.628Z,14.6
2022-09-20T15:56:31.147Z,14.6
2022-09-20T15:57:41.873Z,14.5
2022-09-20T15:58:52.139Z,14.5
2022-09-20T16:00:02.094Z,14.4
2022-09-20T16:01:12.221Z,14.3
2022-09-20T16:02:22.340Z,14.4
2022-09-20T16:04:42.575Z,14.3
2022-09-20T16:05:52.690Z,14.2
2022-09-20T16:07:02.813Z,14.1
2022-09-20T16:09:23.050Z,14.5
2022-09-20T16:10:32.185Z,14.5
2022-09-20T16:11:42.289Z,14.3
2022-09-20T16:12:52.418Z,14.3
2022-09-20T16:14:02.540Z,14.2
2022-09-20T16:15:12.658Z,14.1
2022-09-20T16:16:22.768Z,14
2022-09-20T16:17:32.874Z,13.9
2022-09-20T16:18:42.999Z,13.9
2022-09-20T16:19:53.111Z,13.9
2022-09-20T16:21:03.235Z,13.8
2022-09-20T16:22:13.355Z,13.8
2022-09-20T16:23:23.474Z,13.7
2022-09-20T16:24:33.586Z,13.7
2022-09-20T16:25:42.718Z,13.7
2022-09-20T16:26:52.839Z,13.6
2022-09-20T16:28:02.960Z,13.6
2022-09-20T16:29:13.079Z,13.6
2022-09-20T16:30:23.197Z,13.6